sensor_id;sensor_type;location;lat;lon;timestamp;P1;durP1;ratioP1;P2;durP2;ratioP2
42118;SDS011;27783;42.782;23.274;2024-02-16T00:00:16;32.35;;;16.88;;
42118;SDS011;27783;42.782;23.274;2024-02-16T00:02:42;32.75;;;16.25;;
42118;SDS011;27783;42.782;23.274;2024-02-16T00:05:11;26.80;;;13.25;;
42118;SDS011;27783;42.782;23.274;2024-02-16T00:07:37;32.33;;;15.10;;
42118;SDS011;27783;42.782;23.274;2024-02-16T00:10:04;36.65;;;17.02;;
42118;SDS011;27783;42.782;23.274;2024-02-16T00:12:30;42.63;;;18.83;;
42118;SDS011;27783;42.782;23.274;2024-02-16T00:14:57;39.05;;;17.60;;
42118;SDS011;27783;42.782;23.274;2024-02-16T00:17:22;34.15;;;18.17;;
42118;SDS011;27783;42.782;23.274;2024-02-16T00:19:52;30.25;;;14.40;;
42118;SDS011;27783;42.782;23.274;2024-02-16T00:22:18;28.00;;;13.33;;
42118;SDS011;27783;42.782;23.274;2024-02-16T00:24:43;23.35;;;10.52;;
42118;SDS011;27783;42.782;23.274;2024-02-16T00:27:09;32.72;;;16.15;;
42118;SDS011;27783;42.782;23.274;2024-02-16T00:29:35;24.00;;;12.23;;
42118;SDS011;27783;42.782;23.274;2024-02-16T00:32:02;26.73;;;14.07;;
42118;SDS011;27783;42.782;23.274;2024-02-16T00:34:28;27.05;;;13.63;;
42118;SDS011;27783;42.782;23.274;2024-02-16T00:36:53;28.48;;;12.68;;
42118;SDS011;27783;42.782;23.274;2024-02-16T00:39:19;22.25;;;12.45;;
42118;SDS011;27783;42.782;23.274;2024-02-16T00:41:44;18.85;;;10.20;;
42118;SDS011;27783;42.782;23.274;2024-02-16T00:44:11;20.17;;;11.20;;
42118;SDS011;27783;42.782;23.274;2024-02-16T00:46:36;29.50;;;13.35;;
42118;SDS011;27783;42.782;23.274;2024-02-16T00:49:02;18.25;;;10.20;;
42118;SDS011;27783;42.782;23.274;2024-02-16T00:51:28;20.17;;;11.70;;
42118;SDS011;27783;42.782;23.274;2024-02-16T00:53:54;26.30;;;10.93;;
42118;SDS011;27783;42.782;23.274;2024-02-16T00:56:20;22.83;;;11.45;;
42118;SDS011;27783;42.782;23.274;2024-02-16T00:58:45;27.42;;;12.18;;
42118;SDS011;27783;42.782;23.274;2024-02-16T01:01:11;32.85;;;15.75;;
42118;SDS011;27783;42.782;23.274;2024-02-16T01:03:40;38.35;;;15.10;;
42118;SDS011;27783;42.782;23.274;2024-02-16T01:06:05;32.67;;;13.45;;
42118;SDS011;27783;42.782;23.274;2024-02-16T01:08:33;20.67;;;11.60;;
42118;SDS011;27783;42.782;23.274;2024-02-16T01:10:59;21.10;;;10.60;;
42118;SDS011;27783;42.782;23.274;2024-02-16T01:13:25;20.95;;;10.73;;
42118;SDS011;27783;42.782;23.274;2024-02-16T01:15:50;24.92;;;10.45;;
42118;SDS011;27783;42.782;23.274;2024-02-16T01:18:16;18.98;;;10.65;;
42118;SDS011;27783;42.782;23.274;2024-02-16T01:20:42;17.90;;;11.07;;
42118;SDS011;27783;42.782;23.274;2024-02-16T01:23:07;19.50;;;11.25;;
42118;SDS011;27783;42.782;23.274;2024-02-16T01:25:33;20.30;;;9.90;;
42118;SDS011;27783;42.782;23.274;2024-02-16T01:27:58;24.88;;;10.80;;
42118;SDS011;27783;42.782;23.274;2024-02-16T01:30:24;23.83;;;10.95;;
42118;SDS011;27783;42.782;23.274;2024-02-16T01:32:49;19.30;;;11.07;;
42118;SDS011;27783;42.782;23.274;2024-02-16T01:35:15;16.80;;;9.40;;
42118;SDS011;27783;42.782;23.274;2024-02-16T01:37:40;17.60;;;10.52;;
42118;SDS011;27783;42.782;23.274;2024-02-16T01:40:07;31.05;;;14.48;;
42118;SDS011;27783;42.782;23.274;2024-02-16T01:42:47;19.33;;;11.02;;
42118;SDS011;27783;42.782;23.274;2024-02-16T01:45:12;25.15;;;10.73;;
42118;SDS011;27783;42.782;23.274;2024-02-16T01:47:38;22.88;;;12.05;;
42118;SDS011;27783;42.782;23.274;2024-02-16T01:50:04;32.92;;;12.98;;
42118;SDS011;27783;42.782;23.274;2024-02-16T01:52:30;23.63;;;12.52;;
42118;SDS011;27783;42.782;23.274;2024-02-16T01:54:59;20.88;;;12.43;;
42118;SDS011;27783;42.782;23.274;2024-02-16T01:57:24;23.63;;;11.95;;
42118;SDS011;27783;42.782;23.274;2024-02-16T01:59:50;22.00;;;12.68;;
42118;SDS011;27783;42.782;23.274;2024-02-16T02:02:15;32.38;;;18.02;;
42118;SDS011;27783;42.782;23.274;2024-02-16T02:04:41;39.75;;;22.13;;
42118;SDS011;27783;42.782;23.274;2024-02-16T02:07:13;32.22;;;17.85;;
42118;SDS011;27783;42.782;23.274;2024-02-16T02:09:40;33.15;;;16.48;;
42118;SDS011;27783;42.782;23.274;2024-02-16T02:12:05;35.45;;;15.25;;
42118;SDS011;27783;42.782;23.274;2024-02-16T02:14:31;27.73;;;13.20;;
42118;SDS011;27783;42.782;23.274;2024-02-16T02:16:56;24.30;;;12.45;;
42118;SDS011;27783;42.782;23.274;2024-02-16T02:19:21;18.83;;;10.90;;
42118;SDS011;27783;42.782;23.274;2024-02-16T02:21:47;25.58;;;11.82;;
42118;SDS011;27783;42.782;23.274;2024-02-16T02:24:12;55.13;;;38.03;;
42118;SDS011;27783;42.782;23.274;2024-02-16T02:26:38;40.05;;;24.92;;
42118;SDS011;27783;42.782;23.274;2024-02-16T02:29:04;47.20;;;32.45;;
42118;SDS011;27783;42.782;23.274;2024-02-16T02:31:29;42.17;;;25.45;;
42118;SDS011;27783;42.782;23.274;2024-02-16T02:33:55;30.58;;;18.20;;
42118;SDS011;27783;42.782;23.274;2024-02-16T02:36:20;28.60;;;14.07;;
42118;SDS011;27783;42.782;23.274;2024-02-16T02:38:46;27.63;;;14.38;;
42118;SDS011;27783;42.782;23.274;2024-02-16T02:41:12;22.50;;;12.50;;
42118;SDS011;27783;42.782;23.274;2024-02-16T02:43:41;24.67;;;13.85;;
42118;SDS011;27783;42.782;23.274;2024-02-16T02:46:06;23.48;;;13.98;;
42118;SDS011;27783;42.782;23.274;2024-02-16T02:48:32;25.48;;;13.52;;
42118;SDS011;27783;42.782;23.274;2024-02-16T02:50:57;25.77;;;13.32;;
42118;SDS011;27783;42.782;23.274;2024-02-16T02:53:24;24.98;;;14.13;;
42118;SDS011;27783;42.782;23.274;2024-02-16T02:55:52;23.35;;;12.90;;
42118;SDS011;27783;42.782;23.274;2024-02-16T02:58:18;22.58;;;12.75;;
42118;SDS011;27783;42.782;23.274;2024-02-16T03:00:43;21.88;;;13.05;;
42118;SDS011;27783;42.782;23.274;2024-02-16T03:03:09;25.73;;;13.70;;
42118;SDS011;27783;42.782;23.274;2024-02-16T03:05:35;30.10;;;15.55;;
42118;SDS011;27783;42.782;23.274;2024-02-16T03:08:01;24.10;;;12.95;;
42118;SDS011;27783;42.782;23.274;2024-02-16T03:10:27;27.85;;;14.38;;
42118;SDS011;27783;42.782;23.274;2024-02-16T03:12:56;33.22;;;14.18;;
42118;SDS011;27783;42.782;23.274;2024-02-16T03:15:21;26.13;;;14.07;;
42118;SDS011;27783;42.782;23.274;2024-02-16T03:17:47;27.38;;;15.02;;
42118;SDS011;27783;42.782;23.274;2024-02-16T03:20:12;35.05;;;15.32;;
42118;SDS011;27783;42.782;23.274;2024-02-16T03:22:38;24.00;;;12.35;;
42118;SDS011;27783;42.782;23.274;2024-02-16T03:25:03;26.23;;;13.20;;
42118;SDS011;27783;42.782;23.274;2024-02-16T03:27:30;30.88;;;12.27;;
42118;SDS011;27783;42.782;23.274;2024-02-16T03:29:55;34.55;;;14.70;;
42118;SDS011;27783;42.782;23.274;2024-02-16T03:32:20;27.05;;;12.85;;
42118;SDS011;27783;42.782;23.274;2024-02-16T03:34:46;26.98;;;12.18;;
42118;SDS011;27783;42.782;23.274;2024-02-16T03:37:11;28.17;;;13.95;;
42118;SDS011;27783;42.782;23.274;2024-02-16T03:39:37;29.83;;;15.23;;
42118;SDS011;27783;42.782;23.274;2024-02-16T03:42:02;38.63;;;14.55;;
42118;SDS011;27783;42.782;23.274;2024-02-16T03:44:29;24.63;;;12.97;;
42118;SDS011;27783;42.782;23.274;2024-02-16T03:46:54;22.45;;;12.18;;
42118;SDS011;27783;42.782;23.274;2024-02-16T03:49:20;24.38;;;11.10;;
42118;SDS011;27783;42.782;23.274;2024-02-16T03:51:45;20.92;;;11.35;;
42118;SDS011;27783;42.782;23.274;2024-02-16T03:54:11;26.67;;;12.60;;
42118;SDS011;27783;42.782;23.274;2024-02-16T03:56:36;17.75;;;10.82;;
42118;SDS011;27783;42.782;23.274;2024-02-16T03:59:01;18.95;;;9.93;;
42118;SDS011;27783;42.782;23.274;2024-02-16T04:01:28;23.90;;;11.80;;
42118;SDS011;27783;42.782;23.274;2024-02-16T04:03:55;24.80;;;12.73;;
42118;SDS011;27783;42.782;23.274;2024-02-16T04:06:20;19.00;;;11.48;;
42118;SDS011;27783;42.782;23.274;2024-02-16T04:08:46;19.98;;;11.63;;
42118;SDS011;27783;42.782;23.274;2024-02-16T04:11:13;21.90;;;11.70;;
42118;SDS011;27783;42.782;23.274;2024-02-16T04:13:40;20.98;;;10.45;;
42118;SDS011;27783;42.782;23.274;2024-02-16T04:16:06;18.73;;;9.55;;
42118;SDS011;27783;42.782;23.274;2024-02-16T04:18:31;25.15;;;11.50;;
42118;SDS011;27783;42.782;23.274;2024-02-16T04:20:57;17.70;;;9.90;;
42118;SDS011;27783;42.782;23.274;2024-02-16T04:23:22;20.60;;;9.85;;
42118;SDS011;27783;42.782;23.274;2024-02-16T04:25:47;17.30;;;9.90;;
42118;SDS011;27783;42.782;23.274;2024-02-16T04:28:13;18.33;;;9.90;;
42118;SDS011;27783;42.782;23.274;2024-02-16T04:30:38;25.75;;;12.70;;
42118;SDS011;27783;42.782;23.274;2024-02-16T04:33:04;43.03;;;21.30;;
42118;SDS011;27783;42.782;23.274;2024-02-16T04:35:30;39.28;;;18.75;;
42118;SDS011;27783;42.782;23.274;2024-02-16T04:37:56;32.72;;;13.52;;
42118;SDS011;27783;42.782;23.274;2024-02-16T04:40:21;23.60;;;12.60;;
42118;SDS011;27783;42.782;23.274;2024-02-16T04:42:48;46.58;;;23.45;;
42118;SDS011;27783;42.782;23.274;2024-02-16T04:45:13;249.40;;;120.60;;
42118;SDS011;27783;42.782;23.274;2024-02-16T04:47:39;90.53;;;43.10;;
42118;SDS011;27783;42.782;23.274;2024-02-16T04:50:07;28.38;;;14.80;;
42118;SDS011;27783;42.782;23.274;2024-02-16T04:52:36;33.40;;;20.20;;
42118;SDS011;27783;42.782;23.274;2024-02-16T04:55:05;35.72;;;19.50;;
42118;SDS011;27783;42.782;23.274;2024-02-16T04:57:32;27.17;;;16.97;;
42118;SDS011;27783;42.782;23.274;2024-02-16T05:02:24;24.47;;;12.23;;
42118;SDS011;27783;42.782;23.274;2024-02-16T05:04:49;25.27;;;12.68;;
42118;SDS011;27783;42.782;23.274;2024-02-16T05:07:14;25.23;;;13.45;;
42118;SDS011;27783;42.782;23.274;2024-02-16T05:09:40;23.33;;;13.65;;
42118;SDS011;27783;42.782;23.274;2024-02-16T05:12:06;23.42;;;13.93;;
42118;SDS011;27783;42.782;23.274;2024-02-16T05:14:34;36.75;;;15.27;;
42118;SDS011;27783;42.782;23.274;2024-02-16T05:17:00;28.65;;;15.18;;
42118;SDS011;27783;42.782;23.274;2024-02-16T05:19:25;32.92;;;17.48;;
42118;SDS011;27783;42.782;23.274;2024-02-16T05:21:51;25.88;;;15.70;;
42118;SDS011;27783;42.782;23.274;2024-02-16T05:24:16;34.25;;;16.90;;
42118;SDS011;27783;42.782;23.274;2024-02-16T05:26:42;28.05;;;13.68;;
42118;SDS011;27783;42.782;23.274;2024-02-16T05:29:08;24.15;;;12.32;;
42118;SDS011;27783;42.782;23.274;2024-02-16T05:31:34;33.85;;;14.18;;
42118;SDS011;27783;42.782;23.274;2024-02-16T05:33:59;30.35;;;14.07;;
42118;SDS011;27783;42.782;23.274;2024-02-16T05:36:24;27.60;;;14.32;;
42118;SDS011;27783;42.782;23.274;2024-02-16T05:38:52;24.40;;;13.82;;
42118;SDS011;27783;42.782;23.274;2024-02-16T05:41:20;34.60;;;18.58;;
42118;SDS011;27783;42.782;23.274;2024-02-16T05:43:45;29.50;;;19.92;;
42118;SDS011;27783;42.782;23.274;2024-02-16T05:46:17;35.00;;;15.52;;
42118;SDS011;27783;42.782;23.274;2024-02-16T05:48:46;28.75;;;13.63;;
42118;SDS011;27783;42.782;23.274;2024-02-16T05:51:12;28.35;;;13.88;;
42118;SDS011;27783;42.782;23.274;2024-02-16T05:53:38;33.40;;;16.55;;
42118;SDS011;27783;42.782;23.274;2024-02-16T05:56:05;34.50;;;14.00;;
42118;SDS011;27783;42.782;23.274;2024-02-16T05:58:32;31.23;;;15.82;;
42118;SDS011;27783;42.782;23.274;2024-02-16T06:00:58;54.40;;;16.70;;
42118;SDS011;27783;42.782;23.274;2024-02-16T06:03:24;32.67;;;16.75;;
42118;SDS011;27783;42.782;23.274;2024-02-16T06:05:49;32.50;;;18.77;;
42118;SDS011;27783;42.782;23.274;2024-02-16T06:08:15;42.58;;;19.27;;
42118;SDS011;27783;42.782;23.274;2024-02-16T06:13:08;49.08;;;25.33;;
42118;SDS011;27783;42.782;23.274;2024-02-16T06:15:33;41.53;;;18.55;;
42118;SDS011;27783;42.782;23.274;2024-02-16T06:18:02;37.20;;;17.75;;
42118;SDS011;27783;42.782;23.274;2024-02-16T06:20:28;44.30;;;21.90;;
42118;SDS011;27783;42.782;23.274;2024-02-16T06:22:53;69.63;;;27.75;;
42118;SDS011;27783;42.782;23.274;2024-02-16T06:25:19;54.72;;;24.75;;
42118;SDS011;27783;42.782;23.274;2024-02-16T06:27:45;50.08;;;24.60;;
42118;SDS011;27783;42.782;23.274;2024-02-16T06:30:10;51.85;;;28.08;;
42118;SDS011;27783;42.782;23.274;2024-02-16T06:32:38;57.00;;;30.85;;
42118;SDS011;27783;42.782;23.274;2024-02-16T06:35:04;64.07;;;31.33;;
42118;SDS011;27783;42.782;23.274;2024-02-16T06:37:30;62.83;;;32.17;;
42118;SDS011;27783;42.782;23.274;2024-02-16T06:39:57;60.03;;;31.95;;
42118;SDS011;27783;42.782;23.274;2024-02-16T06:42:22;61.88;;;27.83;;
42118;SDS011;27783;42.782;23.274;2024-02-16T06:44:48;46.53;;;23.75;;
42118;SDS011;27783;42.782;23.274;2024-02-16T06:47:15;46.33;;;22.77;;
42118;SDS011;27783;42.782;23.274;2024-02-16T06:49:40;67.07;;;28.35;;
42118;SDS011;27783;42.782;23.274;2024-02-16T06:52:05;71.38;;;30.35;;
42118;SDS011;27783;42.782;23.274;2024-02-16T06:54:31;82.72;;;37.05;;
42118;SDS011;27783;42.782;23.274;2024-02-16T06:56:57;64.25;;;32.20;;
42118;SDS011;27783;42.782;23.274;2024-02-16T06:59:22;69.72;;;33.53;;
42118;SDS011;27783;42.782;23.274;2024-02-16T07:01:49;62.10;;;31.63;;
42118;SDS011;27783;42.782;23.274;2024-02-16T07:04:15;58.85;;;31.73;;
42118;SDS011;27783;42.782;23.274;2024-02-16T07:06:40;59.00;;;31.42;;
42118;SDS011;27783;42.782;23.274;2024-02-16T07:09:06;57.92;;;29.88;;
42118;SDS011;27783;42.782;23.274;2024-02-16T07:11:31;57.80;;;30.90;;
42118;SDS011;27783;42.782;23.274;2024-02-16T07:13:59;57.65;;;30.00;;
42118;SDS011;27783;42.782;23.274;2024-02-16T07:18:52;58.13;;;30.80;;
42118;SDS011;27783;42.782;23.274;2024-02-16T07:21:19;55.47;;;26.85;;
42118;SDS011;27783;42.782;23.274;2024-02-16T07:23:47;40.50;;;22.85;;
42118;SDS011;27783;42.782;23.274;2024-02-16T07:26:13;42.65;;;23.63;;
42118;SDS011;27783;42.782;23.274;2024-02-16T07:28:39;34.97;;;22.30;;
42118;SDS011;27783;42.782;23.274;2024-02-16T07:31:05;34.47;;;20.27;;
42118;SDS011;27783;42.782;23.274;2024-02-16T07:33:31;41.08;;;23.83;;
42118;SDS011;27783;42.782;23.274;2024-02-16T07:35:56;27.65;;;19.55;;
42118;SDS011;27783;42.782;23.274;2024-02-16T07:38:22;34.95;;;21.73;;
42118;SDS011;27783;42.782;23.274;2024-02-16T07:40:47;33.78;;;19.63;;
42118;SDS011;27783;42.782;23.274;2024-02-16T07:43:15;31.05;;;17.08;;
42118;SDS011;27783;42.782;23.274;2024-02-16T07:45:41;24.40;;;18.35;;
42118;SDS011;27783;42.782;23.274;2024-02-16T07:48:06;28.88;;;19.50;;
42118;SDS011;27783;42.782;23.274;2024-02-16T07:50:32;31.75;;;19.67;;
42118;SDS011;27783;42.782;23.274;2024-02-16T07:52:58;34.72;;;20.90;;
42118;SDS011;27783;42.782;23.274;2024-02-16T07:55:24;34.55;;;20.80;;
42118;SDS011;27783;42.782;23.274;2024-02-16T07:57:52;47.03;;;28.58;;
42118;SDS011;27783;42.782;23.274;2024-02-16T08:00:17;34.30;;;20.63;;
42118;SDS011;27783;42.782;23.274;2024-02-16T08:02:44;32.17;;;19.88;;
42118;SDS011;27783;42.782;23.274;2024-02-16T08:05:12;24.17;;;17.65;;
42118;SDS011;27783;42.782;23.274;2024-02-16T08:07:39;31.17;;;19.45;;
42118;SDS011;27783;42.782;23.274;2024-02-16T08:10:07;33.60;;;20.70;;
42118;SDS011;27783;42.782;23.274;2024-02-16T08:12:33;30.27;;;21.05;;
42118;SDS011;27783;42.782;23.274;2024-02-16T08:15:00;31.75;;;19.60;;
42118;SDS011;27783;42.782;23.274;2024-02-16T08:17:29;33.35;;;21.80;;
42118;SDS011;27783;42.782;23.274;2024-02-16T08:19:56;31.08;;;21.45;;
42118;SDS011;27783;42.782;23.274;2024-02-16T08:22:21;32.75;;;20.08;;
42118;SDS011;27783;42.782;23.274;2024-02-16T08:24:47;29.73;;;18.67;;
42118;SDS011;27783;42.782;23.274;2024-02-16T08:27:14;31.15;;;19.30;;
42118;SDS011;27783;42.782;23.274;2024-02-16T08:29:40;32.17;;;20.25;;
42118;SDS011;27783;42.782;23.274;2024-02-16T08:32:06;35.78;;;19.50;;
42118;SDS011;27783;42.782;23.274;2024-02-16T08:34:33;30.17;;;19.70;;
42118;SDS011;27783;42.782;23.274;2024-02-16T08:37:02;22.42;;;17.77;;
42118;SDS011;27783;42.782;23.274;2024-02-16T08:39:29;24.20;;;19.70;;
42118;SDS011;27783;42.782;23.274;2024-02-16T08:41:54;25.35;;;19.67;;
42118;SDS011;27783;42.782;23.274;2024-02-16T08:44:20;22.58;;;18.73;;
42118;SDS011;27783;42.782;23.274;2024-02-16T08:46:46;20.15;;;16.05;;
42118;SDS011;27783;42.782;23.274;2024-02-16T08:49:13;25.58;;;18.20;;
42118;SDS011;27783;42.782;23.274;2024-02-16T08:51:39;22.05;;;19.02;;
42118;SDS011;27783;42.782;23.274;2024-02-16T08:54:04;21.65;;;18.35;;
42118;SDS011;27783;42.782;23.274;2024-02-16T08:56:30;23.98;;;18.35;;
42118;SDS011;27783;42.782;23.274;2024-02-16T08:58:56;22.83;;;17.17;;
42118;SDS011;27783;42.782;23.274;2024-02-16T09:01:32;21.65;;;17.80;;
42118;SDS011;27783;42.782;23.274;2024-02-16T09:03:57;21.40;;;18.45;;
42118;SDS011;27783;42.782;23.274;2024-02-16T09:06:23;20.20;;;18.20;;
42118;SDS011;27783;42.782;23.274;2024-02-16T09:08:49;18.13;;;16.27;;
42118;SDS011;27783;42.782;23.274;2024-02-16T09:11:14;18.35;;;16.20;;
42118;SDS011;27783;42.782;23.274;2024-02-16T09:13:40;19.25;;;16.60;;
42118;SDS011;27783;42.782;23.274;2024-02-16T09:16:06;21.02;;;18.83;;
42118;SDS011;27783;42.782;23.274;2024-02-16T09:18:32;19.75;;;15.50;;
42118;SDS011;27783;42.782;23.274;2024-02-16T09:21:02;18.10;;;16.20;;
42118;SDS011;27783;42.782;23.274;2024-02-16T09:23:27;17.92;;;15.93;;
42118;SDS011;27783;42.782;23.274;2024-02-16T09:25:53;19.08;;;17.13;;
42118;SDS011;27783;42.782;23.274;2024-02-16T09:28:19;15.48;;;13.63;;
42118;SDS011;27783;42.782;23.274;2024-02-16T09:30:46;16.33;;;14.70;;
42118;SDS011;27783;42.782;23.274;2024-02-16T09:33:11;15.27;;;13.98;;
42118;SDS011;27783;42.782;23.274;2024-02-16T09:35:38;14.03;;;12.63;;
42118;SDS011;27783;42.782;23.274;2024-02-16T09:38:04;15.65;;;13.45;;
42118;SDS011;27783;42.782;23.274;2024-02-16T09:40:30;16.98;;;12.90;;
42118;SDS011;27783;42.782;23.274;2024-02-16T09:42:55;14.13;;;12.77;;
42118;SDS011;27783;42.782;23.274;2024-02-16T09:45:21;16.17;;;14.50;;
42118;SDS011;27783;42.782;23.274;2024-02-16T09:47:48;13.57;;;11.20;;
42118;SDS011;27783;42.782;23.274;2024-02-16T09:50:16;12.60;;;11.48;;
42118;SDS011;27783;42.782;23.274;2024-02-16T09:52:46;15.25;;;11.90;;
42118;SDS011;27783;42.782;23.274;2024-02-16T09:55:13;12.07;;;10.98;;
42118;SDS011;27783;42.782;23.274;2024-02-16T09:57:43;12.05;;;10.90;;
42118;SDS011;27783;42.782;23.274;2024-02-16T10:00:10;18.23;;;16.48;;
42118;SDS011;27783;42.782;23.274;2024-02-16T10:02:40;7.65;;;6.85;;
42118;SDS011;27783;42.782;23.274;2024-02-16T10:05:21;7.30;;;6.60;;
42118;SDS011;27783;42.782;23.274;2024-02-16T10:07:47;8.60;;;7.88;;
42118;SDS011;27783;42.782;23.274;2024-02-16T10:10:22;7.75;;;7.03;;
42118;SDS011;27783;42.782;23.274;2024-02-16T10:12:48;7.15;;;6.55;;
42118;SDS011;27783;42.782;23.274;2024-02-16T10:15:21;11.25;;;7.93;;
42118;SDS011;27783;42.782;23.274;2024-02-16T10:18:03;9.18;;;8.38;;
42118;SDS011;27783;42.782;23.274;2024-02-16T10:20:29;5.53;;;4.97;;
42118;SDS011;27783;42.782;23.274;2024-02-16T10:23:03;6.97;;;5.30;;
42118;SDS011;27783;42.782;23.274;2024-02-16T10:25:29;5.20;;;4.70;;
42118;SDS011;27783;42.782;23.274;2024-02-16T10:27:55;4.22;;;3.83;;
42118;SDS011;27783;42.782;23.274;2024-02-16T10:30:23;5.70;;;5.18;;
42118;SDS011;27783;42.782;23.274;2024-02-16T10:32:54;8.38;;;5.07;;
42118;SDS011;27783;42.782;23.274;2024-02-16T10:35:19;5.38;;;4.85;;
42118;SDS011;27783;42.782;23.274;2024-02-16T10:37:46;5.10;;;4.57;;
42118;SDS011;27783;42.782;23.274;2024-02-16T10:40:13;6.70;;;5.30;;
42118;SDS011;27783;42.782;23.274;2024-02-16T10:42:43;5.40;;;3.92;;
42118;SDS011;27783;42.782;23.274;2024-02-16T10:45:11;6.70;;;5.28;;
42118;SDS011;27783;42.782;23.274;2024-02-16T10:47:38;5.72;;;5.15;;
42118;SDS011;27783;42.782;23.274;2024-02-16T10:50:04;6.65;;;5.45;;
42118;SDS011;27783;42.782;23.274;2024-02-16T10:52:30;5.60;;;5.00;;
42118;SDS011;27783;42.782;23.274;2024-02-16T10:54:57;4.82;;;4.43;;
42118;SDS011;27783;42.782;23.274;2024-02-16T10:57:24;5.53;;;4.53;;
42118;SDS011;27783;42.782;23.274;2024-02-16T10:59:52;5.82;;;4.97;;
42118;SDS011;27783;42.782;23.274;2024-02-16T11:02:19;5.30;;;4.90;;
42118;SDS011;27783;42.782;23.274;2024-02-16T11:04:45;6.07;;;4.93;;
42118;SDS011;27783;42.782;23.274;2024-02-16T11:07:15;4.53;;;3.77;;
42118;SDS011;27783;42.782;23.274;2024-02-16T11:09:42;4.78;;;4.10;;
42118;SDS011;27783;42.782;23.274;2024-02-16T11:12:08;4.63;;;4.22;;
42118;SDS011;27783;42.782;23.274;2024-02-16T11:14:37;5.00;;;4.57;;
42118;SDS011;27783;42.782;23.274;2024-02-16T11:17:19;6.38;;;5.78;;
42118;SDS011;27783;42.782;23.274;2024-02-16T11:19:46;5.32;;;4.82;;
42118;SDS011;27783;42.782;23.274;2024-02-16T11:22:16;3.78;;;3.33;;
42118;SDS011;27783;42.782;23.274;2024-02-16T11:24:46;3.65;;;3.35;;
42118;SDS011;27783;42.782;23.274;2024-02-16T11:27:13;3.42;;;3.13;;
42118;SDS011;27783;42.782;23.274;2024-02-16T11:29:43;2.92;;;2.65;;
42118;SDS011;27783;42.782;23.274;2024-02-16T11:32:10;3.42;;;2.83;;
42118;SDS011;27783;42.782;23.274;2024-02-16T11:34:35;3.03;;;2.72;;
42118;SDS011;27783;42.782;23.274;2024-02-16T11:37:03;2.35;;;2.15;;
42118;SDS011;27783;42.782;23.274;2024-02-16T11:39:32;12.00;;;10.90;;
42118;SDS011;27783;42.782;23.274;2024-02-16T11:44:28;13.40;;;12.02;;
42118;SDS011;27783;42.782;23.274;2024-02-16T11:46:58;3.25;;;2.92;;
42118;SDS011;27783;42.782;23.274;2024-02-16T11:49:24;3.10;;;2.47;;
42118;SDS011;27783;42.782;23.274;2024-02-16T11:51:51;4.32;;;3.47;;
42118;SDS011;27783;42.782;23.274;2024-02-16T11:54:17;2.17;;;1.98;;
42118;SDS011;27783;42.782;23.274;2024-02-16T11:56:46;2.47;;;2.00;;
42118;SDS011;27783;42.782;23.274;2024-02-16T11:59:15;3.58;;;2.53;;
42118;SDS011;27783;42.782;23.274;2024-02-16T12:01:51;4.40;;;2.33;;
42118;SDS011;27783;42.782;23.274;2024-02-16T12:04:24;2.72;;;2.00;;
42118;SDS011;27783;42.782;23.274;2024-02-16T12:06:58;2.10;;;1.90;;
42118;SDS011;27783;42.782;23.274;2024-02-16T12:09:25;2.25;;;2.05;;
42118;SDS011;27783;42.782;23.274;2024-02-16T12:11:51;2.42;;;1.83;;
42118;SDS011;27783;42.782;23.274;2024-02-16T12:14:18;2.90;;;2.45;;
42118;SDS011;27783;42.782;23.274;2024-02-16T12:16:51;5.68;;;5.18;;
42118;SDS011;27783;42.782;23.274;2024-02-16T12:19:20;3.30;;;2.13;;
42118;SDS011;27783;42.782;23.274;2024-02-16T12:21:54;2.92;;;1.75;;
42118;SDS011;27783;42.782;23.274;2024-02-16T12:24:22;4.53;;;2.40;;
42118;SDS011;27783;42.782;23.274;2024-02-16T12:26:48;2.38;;;1.98;;
42118;SDS011;27783;42.782;23.274;2024-02-16T12:29:13;4.63;;;4.22;;
42118;SDS011;27783;42.782;23.274;2024-02-16T12:31:39;2.72;;;2.17;;
42118;SDS011;27783;42.782;23.274;2024-02-16T12:34:06;2.85;;;2.45;;
42118;SDS011;27783;42.782;23.274;2024-02-16T12:36:33;2.90;;;2.60;;
42118;SDS011;27783;42.782;23.274;2024-02-16T12:38:59;2.08;;;1.90;;
42118;SDS011;27783;42.782;23.274;2024-02-16T12:41:25;3.55;;;2.92;;
42118;SDS011;27783;42.782;23.274;2024-02-16T12:43:51;4.45;;;4.03;;
42118;SDS011;27783;42.782;23.274;2024-02-16T12:46:16;3.13;;;2.83;;
42118;SDS011;27783;42.782;23.274;2024-02-16T12:48:43;3.05;;;1.90;;
42118;SDS011;27783;42.782;23.274;2024-02-16T12:51:09;2.70;;;2.50;;
42118;SDS011;27783;42.782;23.274;2024-02-16T12:53:36;13.25;;;11.82;;
42118;SDS011;27783;42.782;23.274;2024-02-16T12:56:06;2.90;;;2.58;;
42118;SDS011;27783;42.782;23.274;2024-02-16T12:58:33;2.65;;;2.45;;
42118;SDS011;27783;42.782;23.274;2024-02-16T13:00:58;2.85;;;2.65;;
42118;SDS011;27783;42.782;23.274;2024-02-16T13:03:24;4.25;;;2.28;;
42118;SDS011;27783;42.782;23.274;2024-02-16T13:05:50;3.75;;;2.60;;
42118;SDS011;27783;42.782;23.274;2024-02-16T13:08:15;2.75;;;2.55;;
42118;SDS011;27783;42.782;23.274;2024-02-16T13:10:40;10.30;;;2.30;;
42118;SDS011;27783;42.782;23.274;2024-02-16T13:13:07;3.10;;;2.80;;
42118;SDS011;27783;42.782;23.274;2024-02-16T13:15:32;3.35;;;2.78;;
42118;SDS011;27783;42.782;23.274;2024-02-16T13:17:58;3.95;;;2.70;;
42118;SDS011;27783;42.782;23.274;2024-02-16T13:20:23;4.63;;;4.22;;
42118;SDS011;27783;42.782;23.274;2024-02-16T13:22:49;2.80;;;2.60;;
42118;SDS011;27783;42.782;23.274;2024-02-16T13:25:14;3.72;;;2.67;;
42118;SDS011;27783;42.782;23.274;2024-02-16T13:27:40;3.05;;;2.78;;
42118;SDS011;27783;42.782;23.274;2024-02-16T13:30:06;3.05;;;2.72;;
42118;SDS011;27783;42.782;23.274;2024-02-16T13:32:32;3.60;;;3.35;;
42118;SDS011;27783;42.782;23.274;2024-02-16T13:34:58;3.15;;;2.60;;
42118;SDS011;27783;42.782;23.274;2024-02-16T13:37:24;2.92;;;2.20;;
42118;SDS011;27783;42.782;23.274;2024-02-16T13:39:49;3.40;;;2.78;;
42118;SDS011;27783;42.782;23.274;2024-02-16T13:42:16;3.55;;;3.25;;
42118;SDS011;27783;42.782;23.274;2024-02-16T13:44:42;2.63;;;2.42;;
42118;SDS011;27783;42.782;23.274;2024-02-16T13:47:08;2.53;;;2.28;;
42118;SDS011;27783;42.782;23.274;2024-02-16T13:49:33;3.88;;;2.60;;
42118;SDS011;27783;42.782;23.274;2024-02-16T13:51:59;4.43;;;2.50;;
42118;SDS011;27783;42.782;23.274;2024-02-16T13:54:25;2.75;;;2.42;;
42118;SDS011;27783;42.782;23.274;2024-02-16T13:56:51;3.42;;;2.42;;
42118;SDS011;27783;42.782;23.274;2024-02-16T13:59:17;2.67;;;2.47;;
42118;SDS011;27783;42.782;23.274;2024-02-16T14:01:43;2.63;;;2.42;;
42118;SDS011;27783;42.782;23.274;2024-02-16T14:04:09;2.75;;;2.47;;
42118;SDS011;27783;42.782;23.274;2024-02-16T14:06:35;3.35;;;2.60;;
42118;SDS011;27783;42.782;23.274;2024-02-16T14:09:01;2.75;;;2.55;;
42118;SDS011;27783;42.782;23.274;2024-02-16T14:11:33;3.28;;;2.97;;
42118;SDS011;27783;42.782;23.274;2024-02-16T14:14:01;2.70;;;2.50;;
42118;SDS011;27783;42.782;23.274;2024-02-16T14:16:27;2.80;;;2.17;;
42118;SDS011;27783;42.782;23.274;2024-02-16T14:18:52;3.10;;;2.80;;
42118;SDS011;27783;42.782;23.274;2024-02-16T14:21:18;4.43;;;4.03;;